Aérodrome :
LOGIN :

S'inscrire | Disclaimer

   EN    FR    IT 

 










Légende :    VFR   VFR Marginal   IFR   IFR Intensif   IFR Très Intensif
Visi : 
Plafond : 
>= 8 km
>= 3000ft
5 à 8 km
1000 à 3000 ft
1500m à 5 km
500 à 1000 ft
800 à 1500m
200 à 500 ft
< 800m
< 200 ft
Symboles :   Orages  Brouillard  Fortes neiges  Fortes précipitations  Vent > 20 kt
SIGMETs :   Divers  Orages  Givrage  Turbulence  Onde Orograph.  Cendres Volcan.







- Altitude de l'aérodrome : 325 ft
- Code IATA : BES
- Voir les cartes d'approche


LFRB - Brest

DERNIER METAR :
  • 231630Z AUTO 24012KT 4800 -RA BR OVC004 15/15 Q1021 TEMPO 22015G25KT 1500 -RA BR

METARs EXPIRÉS :
  • 231600Z AUTO 24012KT 2600 -DZ BR OVC003 15/15 Q1021 TEMPO 22015G25KT
  • 231530Z AUTO 24013KT 2300 -DZ BR OVC003 15/15 Q1021 TEMPO 22015G25KT
  • 231500Z AUTO 24014KT 5000 -DZ BR OVC003 15/15 Q1021 TEMPO 22015G25KT 1500 -RA BR
  • 231430Z AUTO 24013KT 2200 BR OVC003 15/15 Q1021 TEMPO 22015G25KT
  • 231400Z AUTO 24015KT 2300 -DZ BR OVC003 15/15 Q1021 TEMPO 22015G25KT 3000 -RA

TAF AMD TAF LFRB
Valide du 23 à 13h jusqu'au 24 à 18h UTC


231359Z 2313/2418 22015KT 9999 BKN010 OVC030
TEMPO 2313/2323 22015G25KT 1500 -RA BR OVC002
BECMG 2410/2412 BKN016
BECMG 2412/2415 18008KT SCT040
ATIS : +33 2 98 32 02 71
Pas de NOTAMs connus pour ce terrain.



MET'MAP, la Météo Aéronautique d'un coup d'oeil ! - Copyright ORBIFLY Décembre 2007 - Disclaimer

ORBIFLY MET'MAP TEAM :

Programmation & Développement : Alexandra Zaïnal
Conception & Développement : Baudouin d'Aumeries
Co-Programmation & Développement : Marc-Olivier Méhu
Soutien technique & logistique : Manuel Goepfert

Contact : metmap@orbifly.com




SOURCES & CREDITS :

   NOAA